»·PEaware :: N69728 KGCN-KLAS

N69728 :: KGCN-KLAS

FLIGHT INFORMATION

Flight Status: Arrived
Operator: Privately registered:
United States
More flights under this callsign
Pilot: Cory C. (27911)
Aircraft: CESSNA 310
(C310)
More flights by this aircraft type
Origin: KGCN Grand Canyon Natl Park
United States
Destination: KLAS McCarran Intl
United States
More flights between these airports :: More routes between these airports
Route: +21DP BISOP AMERE V208 PGS TYSSN5
File this flight plan on PilotEdge
Remarks:
Altitude:
(Current/Filed)
10,000ft
Speed:
(Current/Filed)
185kts
Departed: 26-May-20 07:12 PM
Arrived: 26-May-20 08:12 PM
Distance/Time
Traveled:
147nm/0:59
Distance/Time
To Go:
Arrived

Flight Plot

Page will automatically refresh every two minutes.

Flight plan parsing failed; only flown route is shown


Map Options




Map Legend


Flown Route
Filed Route
Departure Airport
Arrival Airport
Navaid (VOR, NDB)
Fix

Horizontal Profiles

Position Reports

Time Latitude Longitude Heading Altitude Ground
Speed
26-May-20 18:42 35.954042 -112.142837 71 6607ft 0kts
26-May-20 18:43 35.954042 -112.142837 71 6607ft 0kts
26-May-20 18:44 35.954042 -112.142837 71 6607ft 0kts
26-May-20 18:45 35.954042 -112.142837 71 6607ft 0kts
26-May-20 18:46 35.954042 -112.142837 71 6607ft 0kts
26-May-20 18:47 35.954042 -112.142837 71 6607ft 0kts
26-May-20 18:48 35.954042 -112.142837 71 6607ft 0kts
26-May-20 18:49 35.954042 -112.142837 71 6607ft 0kts
26-May-20 18:50 35.954042 -112.142837 71 6607ft 0kts
26-May-20 18:51 35.954042 -112.142837 71 6607ft 0kts
26-May-20 18:52 35.954042 -112.142837 71 6607ft 0kts
26-May-20 18:53 35.954042 -112.142837 71 6607ft 0kts
26-May-20 18:54 35.954042 -112.142837 71 6607ft 0kts
26-May-20 18:55 35.954042 -112.142837 71 6607ft 0kts
26-May-20 18:56 35.954042 -112.142837 71 6607ft 0kts
26-May-20 18:57 35.954042 -112.142837 71 6607ft 0kts
26-May-20 18:58 35.954042 -112.142837 71 6607ft 0kts
26-May-20 18:59 35.954042 -112.142837 71 6607ft 0kts
26-May-20 19:00 35.954042 -112.142837 71 6607ft 0kts
26-May-20 19:01 35.954042 -112.142837 71 6607ft 0kts
26-May-20 19:02 35.954042 -112.142837 71 6607ft 0kts
26-May-20 19:03 35.954042 -112.142837 71 6607ft 0kts
26-May-20 19:04 35.954042 -112.142837 71 6607ft 0kts
26-May-20 19:05 35.953931 -112.143014 297 6606ft 13kts
26-May-20 19:06 35.954487 -112.142959 39 6605ft 6kts
26-May-20 19:07 35.956069 -112.141287 39 6611ft 16kts
26-May-20 19:08 35.961155 -112.136342 278 6623ft 0kts
26-May-20 19:09 35.961155 -112.136342 278 6623ft 0kts
26-May-20 19:10 35.961556 -112.137228 246 6621ft 6kts
26-May-20 19:11 35.943789 -112.153593 176 7558ft 107kts
26-May-20 19:12 35.916682 -112.167835 236 8940ft 129kts
26-May-20 19:13 35.886788 -112.195884 210 10030ft 169kts
26-May-20 19:14 35.843367 -112.231186 208 10152ft 204kts
26-May-20 19:15 35.792155 -112.266749 216 10075ft 209kts
26-May-20 19:16 35.741547 -112.304499 212 9991ft 212kts
26-May-20 19:17 35.691030 -112.342700 213 10000ft 215kts
26-May-20 19:18 35.640251 -112.382621 212 10048ft 214kts
26-May-20 19:19 35.592486 -112.423981 257 9989ft 213kts
26-May-20 19:20 35.636914 -112.438536 19 10008ft 215kts
26-May-20 19:21 35.692888 -112.412561 10 10037ft 217kts
26-May-20 19:22 35.752685 -112.401524 2 10031ft 216kts
26-May-20 19:23 35.812675 -112.395847 4 10018ft 217kts
26-May-20 19:24 35.872756 -112.390151 1 9998ft 217kts
26-May-20 19:25 35.905411 -112.433940 243 10031ft 213kts
26-May-20 19:26 35.877094 -112.498413 257 9982ft 215kts
26-May-20 19:27 35.861095 -112.568548 255 10056ft 212kts
26-May-20 19:28 35.844147 -112.638271 252 10056ft 213kts
26-May-20 19:29 35.827472 -112.709114 255 9989ft 214kts
26-May-20 19:30 35.811556 -112.779678 257 9989ft 214kts
26-May-20 19:31 35.793779 -112.848971 251 10066ft 212kts
26-May-20 19:32 35.777040 -112.919496 254 10009ft 215kts
26-May-20 19:33 35.760552 -112.990462 254 9991ft 215kts
26-May-20 19:34 35.742652 -113.060905 256 10002ft 217kts
26-May-20 19:35 35.725683 -113.132672 255 9919ft 218kts
26-May-20 19:36 35.708270 -113.203943 253 9900ft 216kts
26-May-20 19:37 35.691463 -113.275254 255 9795ft 220kts
26-May-20 19:38 35.674372 -113.347027 258 9754ft 217kts
26-May-20 19:39 35.657009 -113.417716 253 9798ft 216kts
26-May-20 19:40 35.638401 -113.487867 252 9829ft 216kts
26-May-20 19:41 35.629346 -113.559046 281 9909ft 210kts
26-May-20 19:42 35.637313 -113.631924 280 9842ft 212kts
26-May-20 19:43 35.645245 -113.704840 289 9606ft 217kts
26-May-20 19:44 35.656687 -113.773067 280 10229ft 204kts
26-May-20 19:45 35.664284 -113.844634 276 10180ft 216kts
26-May-20 19:46 35.676700 -113.917579 282 10057ft 218kts
26-May-20 19:47 35.686613 -113.990577 279 10033ft 217kts
26-May-20 19:49 35.703771 -114.061354 292 9975ft 215kts
26-May-20 19:50 35.728451 -114.127372 294 10080ft 212kts
26-May-20 19:51 35.751770 -114.194351 293 10103ft 215kts
26-May-20 19:52 35.774934 -114.263207 293 9981ft 217kts
26-May-20 19:53 35.797661 -114.331717 291 10020ft 215kts
26-May-20 19:54 35.822818 -114.398483 292 10001ft 216kts
26-May-20 19:55 35.847383 -114.466539 298 9932ft 215kts
26-May-20 19:56 35.870624 -114.534217 296 10023ft 215kts
26-May-20 19:57 35.893864 -114.602575 296 9985ft 216kts
26-May-20 19:58 35.915625 -114.671243 293 9987ft 214kts
26-May-20 19:59 35.940058 -114.741115 292 9335ft 223kts
26-May-20 20:00 35.965192 -114.814308 294 8576ft 224kts
26-May-20 20:01 35.990531 -114.885480 291 7815ft 224kts
26-May-20 20:02 36.014821 -114.951381 297 7065ft 220kts
26-May-20 20:03 36.033694 -115.015276 293 6981ft 199kts
26-May-20 20:04 36.062770 -115.069503 312 6343ft 208kts
26-May-20 20:05 36.094511 -115.117838 0 4537ft 215kts
26-May-20 20:05 36.133507 -115.087809 48 3523ft 175kts
26-May-20 20:07 36.171500 -115.047839 343 2997ft 138kts
26-May-20 20:08 36.177756 -115.090188 254 2742ft 133kts
26-May-20 20:08 36.156037 -115.116314 216 2635ft 138kts
26-May-20 20:10 36.125646 -115.138454 201 2461ft 113kts
26-May-20 20:10 36.102567 -115.151313 199 2216ft 98kts
26-May-20 20:11 36.089930 -115.157608 118 2107ft 7kts
26-May-20 20:13 36.087691 -115.157918 246 2114ft 8kts
26-May-20 20:13 36.088176 -115.160213 293 2121ft 10kts
26-May-20 20:14 36.088603 -115.164416 202 2133ft 14kts
26-May-20 20:15 36.084206 -115.166832 206 2151ft 24kts
26-May-20 20:16 36.080723 -115.169771 220 2167ft 11kts
26-May-20 20:17 36.080713 -115.170732 304 2169ft 0kts

Navigation Log

Ident Type
Flight plan parsing failed, navigation log unavailable